createdAt,value
2018-05-14T00:01:36.363Z,6.80
2018-05-14T00:04:04.226Z,6.35
2018-05-14T00:06:32.091Z,6.37
2018-05-14T00:08:59.960Z,6.50
2018-05-14T00:11:27.820Z,6.18
2018-05-14T00:13:55.684Z,5.65
2018-05-14T00:16:23.552Z,6.78
2018-05-14T00:18:51.415Z,6.03
2018-05-14T00:21:19.998Z,6.30
2018-05-14T00:23:48.591Z,5.75
2018-05-14T00:26:16.407Z,5.97
2018-05-14T00:28:44.200Z,6.35
2018-05-14T00:31:12.065Z,5.45
2018-05-14T00:33:39.928Z,6.07
2018-05-14T00:36:07.797Z,5.90
2018-05-14T00:38:35.657Z,6.40
2018-05-14T00:41:03.522Z,6.05
2018-05-14T00:43:31.391Z,5.80
2018-05-14T00:45:59.974Z,6.50
2018-05-14T00:48:28.652Z,6.75
2018-05-14T00:50:56.471Z,6.90
2018-05-14T00:53:24.277Z,6.10
2018-05-14T00:55:52.036Z,6.10
2018-05-14T00:58:19.900Z,6.70
2018-05-14T01:00:47.619Z,5.80
2018-05-14T01:03:15.351Z,6.53
2018-05-14T01:05:43.108Z,6.47
2018-05-14T01:08:10.826Z,5.90
2018-05-14T01:10:38.590Z,5.55
2018-05-14T01:13:07.292Z,7.07
2018-05-14T01:15:35.157Z,6.53
2018-05-14T01:18:02.916Z,5.03
2018-05-14T01:20:30.781Z,8.13
2018-05-14T01:22:58.644Z,6.55
2018-05-14T01:25:26.510Z,5.78
2018-05-14T01:27:54.341Z,6.53
2018-05-14T01:30:22.239Z,5.60
2018-05-14T01:32:50.071Z,6.55
2018-05-14T01:35:17.867Z,6.35
2018-05-14T01:37:45.726Z,6.20
2018-05-14T01:40:13.592Z,6.20
2018-05-14T01:42:41.456Z,5.25
2018-05-14T01:45:09.321Z,5.10
2018-05-14T01:47:37.185Z,5.37
2018-05-14T01:50:04.946Z,5.20
2018-05-14T01:52:32.814Z,6.45
2018-05-14T01:55:01.395Z,5.87
2018-05-14T01:57:29.258Z,6.20
2018-05-14T01:59:57.128Z,5.95
2018-05-14T02:02:25.609Z,5.47
2018-05-14T02:04:54.193Z,5.70
2018-05-14T02:07:22.045Z,5.70
2018-05-14T02:09:49.908Z,5.37
2018-05-14T02:12:17.670Z,6.37
2018-05-14T02:14:45.509Z,4.95
2018-05-14T02:17:13.251Z,5.75
2018-05-14T02:19:40.994Z,5.15
2018-05-14T02:22:08.713Z,6.70
2018-05-14T02:24:36.660Z,5.70
2018-05-14T02:27:04.390Z,5.82
2018-05-14T02:29:32.109Z,5.72
2018-05-14T02:31:59.968Z,6.30
2018-05-14T02:34:27.831Z,6.40
2018-05-14T02:36:55.701Z,5.30
2018-05-14T02:39:23.567Z,5.62
2018-05-14T02:41:51.431Z,7.03
2018-05-14T02:44:19.290Z,6.12
2018-05-14T02:46:47.153Z,5.87
2018-05-14T02:49:15.018Z,6.65
2018-05-14T02:51:42.883Z,4.75
2018-05-14T02:54:10.748Z,4.97
2018-05-14T02:56:38.614Z,5.25
2018-05-14T02:59:07.163Z,5.78
2018-05-14T03:01:34.954Z,5.07
2018-05-14T03:04:02.824Z,5.70
2018-05-14T03:06:31.402Z,5.45
2018-05-14T03:08:59.263Z,5.03
2018-05-14T03:11:27.129Z,5.60
2018-05-14T03:13:54.991Z,5.60
2018-05-14T03:16:22.855Z,5.97
2018-05-14T03:18:50.721Z,6.28
2018-05-14T03:21:18.583Z,5.65
2018-05-14T03:23:46.446Z,5.43
2018-05-14T03:26:14.268Z,6.20
2018-05-14T03:28:42.178Z,5.75
2018-05-14T03:31:09.911Z,6.28
2018-05-14T03:33:37.632Z,6.05
2018-05-14T03:36:05.381Z,6.70
2018-05-14T03:38:33.131Z,7.43
2018-05-14T03:41:00.884Z,5.28
2018-05-14T03:43:28.613Z,6.78
2018-05-14T03:45:56.386Z,5.75
2018-05-14T03:48:24.169Z,5.40
2018-05-14T03:50:52.030Z,6.18
2018-05-14T03:53:19.896Z,6.35
2018-05-14T03:55:47.761Z,5.43
2018-05-14T03:58:27.604Z,5.80
2018-05-14T04:01:07.245Z,5.10
2018-05-14T04:17:06.111Z,5.15
2018-05-14T04:19:33.973Z,6.25
2018-05-14T04:22:01.838Z,5.50
2018-05-14T04:24:29.791Z,5.62
2018-05-14T04:26:58.385Z,5.95
2018-05-14T04:29:26.250Z,5.90
2018-05-14T04:31:54.118Z,5.90
2018-05-14T04:34:21.980Z,6.62
2018-05-14T04:36:49.846Z,5.95
2018-05-14T04:39:17.712Z,6.20
2018-05-14T04:41:45.471Z,6.80
2018-05-14T04:44:13.332Z,6.18
2018-05-14T04:46:41.064Z,5.80
2018-05-14T04:49:08.857Z,6.10
2018-05-14T04:51:36.721Z,6.18
2018-05-14T04:54:04.588Z,6.78
2018-05-14T04:56:32.424Z,7.22
2018-05-14T04:59:00.167Z,5.53
2018-05-14T05:01:27.925Z,7.35
2018-05-14T05:03:55.659Z,7.07
2018-05-14T05:06:23.497Z,5.60
2018-05-14T05:08:51.360Z,6.60
2018-05-14T05:11:19.225Z,6.12
2018-05-14T05:13:47.089Z,5.72
2018-05-14T05:16:14.972Z,6.70
2018-05-14T05:18:43.637Z,5.78
2018-05-14T05:21:11.501Z,7.10
2018-05-14T05:23:39.364Z,6.05
2018-05-14T05:26:07.231Z,6.05
2018-05-14T05:28:35.094Z,5.90
2018-05-14T05:31:02.859Z,5.10
2018-05-14T05:33:30.613Z,6.20
2018-05-14T05:35:58.481Z,5.10
2018-05-14T05:38:26.313Z,5.80
2018-05-14T05:40:54.105Z,5.90
2018-05-14T05:43:21.971Z,5.20
2018-05-14T05:45:49.839Z,6.00
2018-05-14T05:48:17.777Z,5.70
2018-05-14T05:50:45.669Z,5.53
2018-05-14T05:53:13.409Z,5.78
2018-05-14T05:55:41.195Z,4.85
2018-05-14T05:58:09.054Z,5.82
2018-05-14T06:00:36.822Z,5.43
2018-05-14T06:03:04.691Z,5.82
2018-05-14T06:05:32.544Z,4.97
2018-05-14T06:08:00.279Z,6.72
2018-05-14T06:10:28.041Z,5.20
2018-05-14T06:12:55.756Z,5.78
2018-05-14T06:15:23.556Z,5.62
2018-05-14T06:17:51.281Z,4.62
2018-05-14T06:20:18.995Z,4.90
2018-05-14T06:22:46.774Z,6.00
2018-05-14T06:25:14.485Z,4.55
2018-05-14T06:27:42.402Z,5.72
2018-05-14T06:30:10.115Z,5.30
2018-05-14T06:32:37.923Z,5.03
2018-05-14T06:35:05.686Z,4.90
2018-05-14T06:37:33.557Z,4.80
2018-05-14T06:40:01.415Z,4.82
2018-05-14T06:42:29.280Z,4.70
2018-05-14T06:44:57.161Z,5.07
2018-05-14T06:47:25.005Z,4.37
2018-05-14T06:49:52.813Z,4.53
2018-05-14T06:52:20.528Z,4.50
2018-05-14T06:54:48.416Z,4.72
2018-05-14T06:57:16.142Z,5.40
2018-05-14T06:59:44.017Z,4.10
2018-05-14T07:02:11.881Z,5.43
2018-05-14T07:04:39.745Z,5.00
2018-05-14T07:07:07.610Z,4.60
2018-05-14T07:09:35.473Z,4.47
2018-05-14T07:12:03.338Z,4.03
2018-05-14T07:14:31.200Z,4.07
2018-05-14T07:16:59.063Z,4.57
2018-05-14T07:19:27.306Z,5.05
2018-05-14T07:21:55.201Z,4.43
2018-05-14T07:24:22.932Z,3.97
2018-05-14T07:26:50.688Z,3.70
2018-05-14T07:29:18.486Z,4.60
2018-05-14T07:31:46.452Z,4.50
2018-05-14T07:34:14.176Z,4.62
2018-05-14T07:36:41.931Z,3.78
2018-05-14T07:39:09.768Z,3.72
2018-05-14T07:41:38.420Z,4.12
2018-05-14T07:44:06.248Z,4.22
2018-05-14T07:46:34.151Z,3.85
2018-05-14T07:49:02.017Z,3.60
2018-05-14T07:51:29.877Z,3.33
2018-05-14T07:53:57.635Z,4.30
2018-05-14T07:56:25.511Z,3.80
2018-05-14T07:58:53.368Z,3.72
2018-05-14T08:01:21.230Z,3.95
2018-05-14T08:03:49.090Z,3.78
2018-05-14T08:06:17.472Z,4.60
2018-05-14T08:08:45.343Z,3.65
2018-05-14T08:11:13.193Z,4.28
2018-05-14T08:13:41.058Z,4.07
2018-05-14T08:16:08.921Z,3.83
2018-05-14T08:18:37.677Z,4.45
2018-05-14T08:21:05.400Z,3.30
2018-05-14T08:23:33.949Z,3.60
2018-05-14T08:26:02.602Z,3.00
2018-05-14T08:28:30.395Z,3.80
2018-05-14T08:30:58.222Z,4.25
2018-05-14T08:33:26.119Z,3.90
2018-05-14T08:35:53.982Z,3.65
2018-05-14T08:38:21.844Z,3.40
2018-05-14T08:40:49.598Z,3.50
2018-05-14T08:43:17.329Z,4.22
2018-05-14T08:45:45.093Z,3.30
2018-05-14T08:48:12.891Z,4.03
2018-05-14T08:50:40.678Z,3.62
2018-05-14T08:53:08.399Z,3.85
2018-05-14T08:55:36.160Z,4.55
2018-05-14T08:58:03.940Z,3.78
2018-05-14T09:00:31.828Z,3.80
2018-05-14T09:02:59.795Z,4.45
2018-05-14T09:05:28.349Z,4.20
2018-05-14T09:07:56.110Z,5.10
2018-05-14T09:10:23.874Z,4.80
2018-05-14T09:12:51.738Z,4.15
2018-05-14T09:15:19.461Z,4.07
2018-05-14T09:17:47.263Z,4.18
2018-05-14T09:20:14.988Z,4.53
2018-05-14T09:22:42.890Z,4.07
2018-05-14T09:25:10.647Z,4.97
2018-05-14T09:27:38.482Z,5.70
2018-05-14T09:30:06.380Z,4.40
2018-05-14T09:32:34.199Z,4.22
2018-05-14T09:35:02.118Z,5.35
2018-05-14T09:37:29.969Z,4.70
2018-05-14T09:39:57.835Z,5.15
2018-05-14T09:42:25.698Z,4.90
2018-05-14T09:44:53.562Z,5.15
2018-05-14T09:47:21.533Z,4.47
2018-05-14T09:49:49.278Z,4.72
2018-05-14T09:52:17.053Z,3.85
2018-05-14T09:54:44.881Z,4.35
2018-05-14T09:57:12.801Z,5.22
2018-05-14T09:59:40.583Z,3.97
2018-05-14T10:02:08.360Z,4.40
2018-05-14T10:04:36.091Z,4.05
2018-05-14T10:07:03.865Z,3.87
2018-05-14T10:09:31.589Z,4.00
2018-05-14T10:11:59.349Z,3.80
2018-05-14T10:14:27.070Z,3.45
2018-05-14T10:16:54.981Z,3.90
2018-05-14T10:19:22.740Z,2.90
2018-05-14T10:21:50.605Z,3.60
2018-05-14T10:24:18.328Z,4.35
2018-05-14T10:26:46.045Z,4.28
2018-05-14T10:29:13.889Z,3.45
2018-05-14T10:31:41.755Z,3.40
2018-05-14T10:34:09.617Z,4.82
2018-05-14T10:36:37.479Z,3.62
2018-05-14T10:39:06.142Z,4.25
2018-05-14T10:41:33.926Z,3.90
2018-05-14T10:44:01.790Z,4.47
2018-05-14T10:46:29.652Z,4.68
2018-05-14T10:48:57.520Z,3.97
2018-05-14T10:51:25.385Z,3.65
2018-05-14T10:53:53.248Z,4.10
2018-05-14T10:56:21.013Z,4.50
2018-05-14T10:58:48.739Z,3.60
2018-05-14T11:01:16.597Z,4.05
2018-05-14T11:03:44.316Z,3.60
2018-05-14T11:06:12.121Z,4.15
2018-05-14T11:08:39.922Z,4.10
2018-05-14T11:11:07.784Z,4.03
2018-05-14T11:13:35.648Z,4.90
2018-05-14T11:16:03.512Z,3.78
2018-05-14T11:18:31.376Z,4.80
2018-05-14T11:20:59.129Z,3.65
2018-05-14T11:23:26.851Z,3.92
2018-05-14T11:25:54.624Z,4.95
2018-05-14T11:28:22.355Z,3.40
2018-05-14T11:30:50.077Z,3.65
2018-05-14T11:33:17.848Z,4.07
2018-05-14T11:35:45.713Z,3.40
2018-05-14T11:38:13.537Z,4.43
2018-05-14T11:40:41.337Z,4.15
2018-05-14T11:43:10.065Z,3.97
2018-05-14T11:45:38.713Z,4.07
2018-05-14T11:48:07.389Z,3.97
2018-05-14T11:50:35.250Z,4.35
2018-05-14T11:53:03.112Z,3.80
2018-05-14T11:55:30.981Z,3.95
2018-05-14T11:57:58.941Z,3.95
2018-05-14T12:00:26.807Z,3.35
2018-05-14T12:02:54.725Z,3.47
2018-05-14T12:05:22.537Z,5.00
2018-05-14T12:07:50.399Z,3.90
2018-05-14T12:10:18.267Z,3.62
2018-05-14T12:12:46.087Z,3.47
2018-05-14T12:15:13.890Z,4.00
2018-05-14T12:17:41.755Z,3.60
2018-05-14T12:20:09.499Z,3.37
2018-05-14T12:22:37.278Z,4.40
2018-05-14T12:25:05.857Z,4.22
2018-05-14T12:27:33.728Z,3.50
2018-05-14T12:30:01.598Z,4.78
2018-05-14T12:32:29.455Z,3.97
2018-05-14T12:34:57.341Z,4.22
2018-05-14T12:37:26.027Z,4.95
2018-05-14T12:39:53.760Z,4.15
2018-05-14T12:42:21.534Z,4.00
2018-05-14T12:44:49.258Z,3.40
2018-05-14T12:47:17.015Z,3.10
2018-05-14T12:49:44.731Z,3.60
2018-05-14T12:52:13.349Z,4.62
2018-05-14T12:54:41.150Z,3.70
2018-05-14T12:57:09.092Z,3.90
2018-05-14T12:59:36.877Z,3.95
2018-05-14T13:02:04.601Z,4.93
2018-05-14T13:04:32.349Z,4.35
2018-05-14T13:07:00.175Z,4.65
2018-05-14T13:09:28.028Z,5.18
2018-05-14T13:11:55.804Z,4.30
2018-05-14T13:14:23.657Z,3.08
2018-05-14T13:16:51.523Z,4.00
2018-05-14T13:19:20.252Z,4.30
2018-05-14T13:21:48.031Z,4.65
2018-05-14T13:24:15.932Z,4.57
2018-05-14T13:26:43.802Z,3.50
2018-05-14T13:29:11.658Z,3.72
2018-05-14T13:31:39.523Z,4.22
2018-05-14T13:34:07.388Z,3.75
2018-05-14T13:36:35.372Z,4.43
2018-05-14T13:39:03.125Z,4.60
2018-05-14T13:41:30.983Z,5.15
2018-05-14T13:43:58.844Z,4.15
2018-05-14T13:46:26.724Z,4.45
2018-05-14T13:48:55.395Z,4.72
2018-05-14T13:51:23.182Z,4.35
2018-05-14T13:53:50.904Z,4.40
2018-05-14T13:56:18.694Z,4.70
2018-05-14T13:58:46.436Z,4.25
2018-05-14T14:01:14.214Z,4.40
2018-05-14T14:03:41.949Z,4.78
2018-05-14T14:06:09.687Z,4.25
2018-05-14T14:08:37.591Z,4.75
2018-05-14T14:11:05.411Z,4.87
2018-05-14T14:13:33.167Z,4.40
2018-05-14T14:16:00.976Z,4.72
2018-05-14T14:18:28.839Z,4.20
2018-05-14T14:20:56.568Z,4.90
2018-05-14T14:23:24.601Z,5.30
2018-05-14T14:25:53.149Z,5.65
2018-05-14T14:28:21.012Z,5.47
2018-05-14T14:30:48.877Z,4.50
2018-05-14T14:33:16.639Z,4.72
2018-05-14T14:35:44.542Z,4.40
2018-05-14T14:38:13.085Z,4.20
2018-05-14T14:40:40.955Z,4.00
2018-05-14T14:43:08.813Z,4.60
2018-05-14T14:45:36.574Z,4.50
2018-05-14T14:48:05.154Z,4.60
2018-05-14T14:50:32.916Z,4.55
2018-05-14T14:53:00.678Z,4.12
2018-05-14T14:55:28.511Z,4.15
2018-05-14T14:57:56.237Z,4.68
2018-05-14T15:00:24.792Z,4.00
2018-05-14T15:02:52.524Z,4.57
2018-05-14T15:05:20.306Z,3.83
2018-05-14T15:07:48.063Z,4.22
2018-05-14T15:10:15.832Z,4.43
2018-05-14T15:12:43.596Z,4.65
2018-05-14T15:15:11.316Z,4.40
2018-05-14T15:17:39.066Z,4.62
2018-05-14T15:20:06.856Z,4.55
2018-05-14T15:22:34.607Z,4.95
2018-05-14T15:25:02.401Z,4.62
2018-05-14T15:27:30.170Z,4.70
2018-05-14T15:29:58.000Z,5.62
2018-05-14T15:32:25.971Z,4.65
2018-05-14T15:34:53.691Z,5.35
2018-05-14T15:37:22.194Z,4.97
2018-05-14T15:39:49.996Z,6.47
2018-05-14T15:42:17.728Z,5.15
2018-05-14T15:44:45.624Z,5.30
2018-05-14T15:47:13.352Z,4.40
2018-05-14T15:49:41.145Z,4.78
2018-05-14T15:52:08.888Z,5.43
2018-05-14T15:54:36.633Z,4.75
2018-05-14T15:57:04.408Z,5.35
2018-05-14T15:59:32.172Z,4.53
2018-05-14T16:02:00.701Z,5.28
2018-05-14T16:04:28.481Z,5.80
2018-05-14T16:06:57.008Z,4.70
2018-05-14T16:09:24.740Z,5.30
2018-05-14T16:11:52.723Z,4.20
2018-05-14T16:14:20.460Z,5.05
2018-05-14T16:16:49.290Z,4.80
2018-05-14T16:19:17.113Z,4.97
2018-05-14T16:21:45.222Z,4.10
2018-05-14T16:24:12.971Z,4.80
2018-05-14T16:26:40.819Z,4.30
2018-05-14T16:29:09.482Z,4.20
2018-05-14T16:31:37.284Z,5.57
2018-05-14T16:34:05.069Z,4.62
2018-05-14T16:36:32.804Z,4.25
2018-05-14T16:39:00.553Z,4.10
2018-05-14T16:41:28.339Z,5.40
2018-05-14T16:43:56.211Z,4.57
2018-05-14T16:46:23.967Z,4.55
2018-05-14T16:48:51.833Z,3.05
2018-05-14T16:51:19.554Z,4.28
2018-05-14T16:53:47.458Z,3.50
2018-05-14T16:56:15.323Z,4.43
2018-05-14T16:58:43.184Z,4.82
2018-05-14T17:01:11.056Z,4.55
2018-05-14T17:03:38.915Z,4.25
2018-05-14T17:06:06.777Z,4.00
2018-05-14T17:08:34.704Z,4.37
2018-05-14T17:11:02.506Z,4.25
2018-05-14T17:13:30.370Z,4.25
2018-05-14T17:15:58.193Z,5.45
2018-05-14T17:18:25.953Z,5.55
2018-05-14T17:20:53.713Z,4.35
2018-05-14T17:23:21.523Z,4.00
2018-05-14T17:25:49.274Z,4.85
2018-05-14T17:28:17.009Z,4.62
2018-05-14T17:30:44.835Z,4.35
2018-05-14T17:33:13.491Z,4.30
2018-05-14T17:35:41.216Z,4.15
2018-05-14T17:38:08.979Z,4.40
2018-05-14T17:40:36.786Z,3.80
2018-05-14T17:43:04.545Z,5.30
2018-05-14T17:45:32.265Z,4.22
2018-05-14T17:48:00.026Z,4.30
2018-05-14T17:50:27.740Z,4.45
2018-05-14T17:52:55.564Z,4.05
2018-05-14T17:55:23.335Z,4.10
2018-05-14T17:57:51.239Z,4.53
2018-05-14T18:00:19.072Z,4.00
2018-05-14T18:02:46.939Z,4.00
2018-05-14T18:05:14.875Z,4.82
2018-05-14T18:07:42.665Z,5.20
2018-05-14T18:10:10.530Z,5.32
2018-05-14T18:12:38.394Z,4.57
2018-05-14T18:15:06.263Z,4.28
2018-05-14T18:17:34.234Z,4.87
2018-05-14T18:23:07.434Z,4.93
2018-05-14T18:25:40.929Z,5.30
2018-05-14T18:28:08.793Z,5.40
2018-05-14T18:30:39.531Z,4.45
2018-05-14T18:33:11.278Z,5.53
2018-05-14T18:35:43.933Z,4.85
2018-05-14T18:38:11.843Z,5.28
2018-05-14T18:40:41.541Z,4.85
2018-05-14T18:43:11.240Z,5.20
2018-05-14T18:45:41.042Z,5.43
2018-05-14T18:48:09.010Z,5.75
2018-05-14T18:50:37.079Z,6.15
2018-05-14T18:53:04.942Z,6.50
2018-05-14T18:55:33.440Z,4.72
2018-05-14T18:58:01.288Z,5.10
2018-05-14T19:00:29.149Z,5.90
2018-05-14T19:02:56.952Z,5.20
2018-05-14T19:05:24.750Z,5.60
2018-05-14T19:07:52.543Z,5.70
2018-05-14T19:10:25.996Z,5.80
2018-05-14T19:12:53.807Z,5.80
2018-05-14T19:15:27.223Z,6.22
2018-05-14T19:18:00.792Z,6.15
2018-05-14T19:20:28.654Z,6.20
2018-05-14T19:23:02.968Z,6.43
2018-05-14T19:25:30.830Z,6.10
2018-05-14T19:28:04.429Z,6.53
2018-05-14T19:30:32.297Z,5.43
2018-05-14T19:33:00.977Z,5.62
2018-05-14T19:35:34.576Z,5.70
2018-05-14T19:38:03.115Z,5.85
2018-05-14T19:40:36.574Z,5.37
2018-05-14T19:43:05.233Z,7.12
2018-05-14T19:45:33.096Z,5.50
2018-05-14T19:48:00.962Z,5.95
2018-05-14T19:50:29.724Z,6.22
2018-05-14T19:52:57.611Z,4.85
2018-05-14T19:55:26.098Z,6.05
2018-05-14T19:57:53.922Z,5.80
2018-05-14T20:00:21.716Z,5.25
2018-05-14T20:02:49.583Z,5.78
2018-05-14T20:05:17.460Z,5.70
2018-05-14T20:07:46.130Z,4.45
2018-05-14T20:10:13.951Z,5.20
2018-05-14T20:12:41.857Z,5.10
2018-05-14T20:15:09.838Z,4.93
2018-05-14T20:17:37.629Z,5.95
2018-05-14T20:20:06.257Z,5.22
2018-05-14T20:22:33.993Z,4.15
2018-05-14T20:25:01.834Z,5.90
2018-05-14T20:27:29.574Z,5.90
2018-05-14T20:29:58.713Z,5.97
2018-05-14T20:32:26.581Z,5.47
2018-05-14T20:34:54.481Z,6.12
2018-05-14T20:37:24.026Z,6.28
2018-05-14T20:39:51.851Z,5.57
2018-05-14T20:42:19.708Z,5.70
2018-05-14T20:44:47.575Z,5.45
2018-05-14T20:47:17.190Z,6.07
2018-05-14T20:49:45.043Z,4.80
2018-05-14T20:52:13.004Z,6.43
2018-05-14T20:54:40.773Z,6.65
2018-05-14T20:57:08.646Z,5.18
2018-05-14T20:59:36.499Z,4.85
2018-05-14T21:02:04.367Z,4.95
2018-05-14T21:04:32.225Z,4.47
2018-05-14T21:07:01.902Z,6.50
2018-05-14T21:09:29.697Z,4.65
2018-05-14T21:11:58.378Z,5.90
2018-05-14T21:14:26.221Z,4.90
2018-05-14T21:16:54.111Z,4.87
2018-05-14T21:19:21.977Z,5.80
2018-05-14T21:21:51.967Z,5.10
2018-05-14T21:24:20.057Z,5.00
2018-05-14T21:26:48.910Z,5.10
2018-05-14T21:29:16.805Z,5.47
2018-05-14T21:31:46.071Z,5.40
2018-05-14T21:34:13.969Z,5.68
2018-05-14T21:36:43.181Z,7.15
2018-05-14T21:39:10.976Z,5.43
2018-05-14T21:41:38.704Z,7.53
2018-05-14T21:44:06.626Z,6.30
2018-05-14T21:46:34.373Z,7.18
2018-05-14T21:49:02.169Z,6.95
2018-05-14T21:51:29.906Z,7.20
2018-05-14T21:53:57.828Z,8.60
2018-05-14T21:56:26.416Z,7.30
2018-05-14T21:58:55.177Z,7.93
2018-05-14T22:01:23.033Z,7.15
2018-05-14T22:03:51.618Z,8.25
2018-05-14T22:06:19.861Z,7.65
2018-05-14T22:08:47.754Z,6.05
2018-05-14T22:11:18.845Z,6.18
2018-05-14T22:13:46.655Z,7.47
2018-05-14T22:16:14.520Z,6.47
2018-05-14T22:18:43.100Z,7.43
2018-05-14T22:21:10.963Z,6.37
2018-05-14T22:23:39.647Z,6.70
2018-05-14T22:26:07.721Z,6.60
2018-05-14T22:28:36.299Z,7.40
2018-05-14T22:31:04.125Z,6.50
2018-05-14T22:33:32.029Z,6.35
2018-05-14T22:35:59.861Z,5.70
2018-05-14T22:38:27.762Z,6.30
2018-05-14T22:40:55.620Z,7.18
2018-05-14T22:43:24.307Z,7.20
2018-05-14T22:45:52.883Z,6.62
2018-05-14T22:48:21.467Z,5.97
2018-05-14T22:50:49.235Z,6.95
2018-05-14T22:53:16.992Z,6.25
2018-05-14T22:55:44.763Z,5.60
2018-05-14T22:58:12.495Z,6.65
2018-05-14T23:00:40.259Z,6.62
2018-05-14T23:03:08.005Z,6.90
2018-05-14T23:05:35.773Z,7.75
2018-05-14T23:08:03.510Z,7.10
2018-05-14T23:10:31.422Z,6.75
2018-05-14T23:12:59.251Z,7.43
2018-05-14T23:15:27.154Z,7.12
2018-05-14T23:17:55.738Z,7.30
2018-05-14T23:20:23.596Z,8.00
2018-05-14T23:22:51.422Z,7.68
2018-05-14T23:25:19.325Z,6.75
2018-05-14T23:27:47.867Z,8.02
2018-05-14T23:30:15.628Z,7.20
2018-05-14T23:32:43.534Z,7.55
2018-05-14T23:35:12.112Z,6.40
2018-05-14T23:37:40.756Z,6.53
2018-05-14T23:40:08.557Z,7.00
2018-05-14T23:42:37.242Z,7.50
2018-05-14T23:45:05.106Z,6.55
2018-05-14T23:47:33.789Z,6.60
2018-05-14T23:50:02.370Z,6.85
2018-05-14T23:52:31.053Z,6.32
2018-05-14T23:54:58.793Z,6.00
2018-05-14T23:57:26.685Z,6.68
2018-05-14T23:59:54.544Z,7.22
